Time;durP1;ratioP1;P1;durP2;ratioP2;P2;SDS_P1;SDS_P2;PMS_P1;PMS_P2;Temp;Humidity;BMP_temperature;BMP_pressure;BME280_temperature;BME280_humidity;BME280_pressure;Samples;Min_cycle;Max_cycle;Signal;HPM_P1;HPM_P2
2021/06/05 00:01:53;;;;;;;3.50;3.20;;;19.60;99.90;;;;;;5028466;28;20239;-77
2021/06/05 00:04:21;;;;;;;3.20;3.00;;;19.50;99.90;;;;;;5025488;28;20201;-77
2021/06/05 00:06:49;;;;;;;2.88;2.67;;;19.50;99.90;;;;;;5020137;28;20231;-77
2021/06/05 00:09:20;;;;;;;3.67;3.38;;;19.40;99.90;;;;;;5029283;28;20223;-77
2021/06/05 00:11:47;;;;;;;3.13;2.92;;;19.40;99.90;;;;;;5030221;28;20216;-77
2021/06/05 00:14:14;;;;;;;2.90;2.70;;;19.40;99.90;;;;;;5030359;28;22608;-78
2021/06/05 00:16:43;;;;;;;3.53;3.28;;;19.50;99.90;;;;;;5028104;28;20728;-77
2021/06/05 00:19:12;;;;;;;3.45;3.20;;;19.40;99.90;;;;;;5029632;28;20233;-77
2021/06/05 00:21:39;;;;;;;3.38;3.08;;;19.40;99.90;;;;;;5027057;28;20278;-77
2021/06/05 00:24:07;;;;;;;3.03;2.83;;;19.30;99.90;;;;;;5029615;28;20200;-77
2021/06/05 00:26:35;;;;;;;3.13;2.92;;;19.20;99.90;;;;;;5130057;22;20253;-74
2021/06/05 00:29:02;;;;;;;3.05;2.85;;;19.20;99.90;;;;;;5011232;28;20203;-74
2021/06/05 00:31:29;;;;;;;2.80;2.60;;;19.30;99.90;;;;;;5010278;28;20782;-75
2021/06/05 00:33:55;;;;;;;3.15;2.85;;;19.30;99.90;;;;;;5013271;28;20687;-74
2021/06/05 00:36:22;;;;;;;3.50;3.30;;;19.30;99.90;;;;;;5024445;28;20579;-74
2021/06/05 00:38:49;;;;;;;3.45;3.25;;;19.30;99.90;;;;;;5032226;28;20211;-75
2021/06/05 00:41:18;;;;;;;3.33;3.13;;;19.20;99.90;;;;;;5024281;28;20199;-74
2021/06/05 00:43:48;;;;;;;3.58;3.28;;;19.20;99.90;;;;;;5030039;28;20254;-74
2021/06/05 00:46:17;;;;;;;3.60;3.30;;;19.20;99.90;;;;;;5029864;28;20720;-74
2021/06/05 00:48:44;;;;;;;3.60;3.40;;;19.20;99.90;;;;;;5028262;28;20197;-75
2021/06/05 00:51:12;;;;;;;3.40;3.10;;;19.10;99.90;;;;;;5028724;28;20214;-74
2021/06/05 00:53:39;;;;;;;3.80;3.50;;;19.10;99.90;;;;;;5031784;28;20608;-73
2021/06/05 00:56:10;;;;;;;3.75;3.45;;;19.10;99.90;;;;;;5031709;28;20577;-74
2021/06/05 00:58:37;;;;;;;3.38;3.17;;;19.10;99.90;;;;;;5029755;28;20210;-74
2021/06/05 01:01:10;;;;;;;3.28;3.08;;;19.00;99.90;;;;;;5029972;28;20218;-74
2021/06/05 01:03:38;;;;;;;3.40;3.20;;;19.00;99.90;;;;;;5034500;28;20546;-74
2021/06/05 01:06:09;;;;;;;3.30;3.10;;;19.00;99.90;;;;;;5039180;28;20238;-75
2021/06/05 01:08:42;;;;;;;3.20;3.00;;;18.90;99.90;;;;;;5053306;28;20200;-76
2021/06/05 01:11:15;;;;;;;3.20;3.00;;;18.90;99.90;;;;;;5029551;28;20199;-74
2021/06/05 01:13:48;;;;;;;3.33;3.13;;;18.90;99.90;;;;;;5031044;28;20669;-74
2021/06/05 01:16:19;;;;;;;3.25;3.05;;;18.90;99.90;;;;;;5028321;28;20588;-74
2021/06/05 01:18:49;;;;;;;2.95;2.75;;;18.90;99.90;;;;;;5023795;28;20192;-75
2021/06/05 01:21:41;;;;;;;3.40;3.10;;;18.90;99.90;;;;;;5030496;28;20679;-73
2021/06/05 01:24:25;;;;;;;3.28;3.05;;;18.90;99.90;;;;;;5031611;28;20245;-73
2021/06/05 01:26:57;;;;;;;3.47;3.17;;;18.80;99.90;;;;;;5022203;28;20229;-74
2021/06/05 01:29:29;;;;;;;4.10;3.70;;;18.80;99.90;;;;;;5026854;28;20207;-73
2021/06/05 01:31:59;;;;;;;3.50;3.20;;;18.80;99.90;;;;;;5029910;28;20223;-73
2021/06/05 01:34:29;;;;;;;3.65;3.35;;;18.80;99.90;;;;;;5031467;28;20199;-73
2021/06/05 01:36:56;;;;;;;3.50;3.30;;;18.70;99.90;;;;;;5032294;28;20222;-73
2021/06/05 01:39:27;;;;;;;3.40;3.17;;;18.70;99.90;;;;;;5031449;28;20199;-74
2021/06/05 01:41:56;;;;;;;3.17;2.97;;;18.70;99.90;;;;;;5028545;28;20219;-74
2021/06/05 01:44:26;;;;;;;3.20;3.00;;;18.60;99.90;;;;;;5031526;28;20200;-74
2021/06/05 01:46:53;;;;;;;3.33;3.03;;;18.60;99.90;;;;;;5029779;28;20230;-73
2021/06/05 01:49:20;;;;;;;4.68;3.60;;;18.60;99.90;;;;;;5024779;28;20210;-75
2021/06/05 01:51:51;;;;;;;3.55;3.25;;;18.70;99.90;;;;;;5024852;28;20254;-74
2021/06/05 01:54:21;;;;;;;3.30;3.10;;;18.60;99.90;;;;;;5013133;28;20571;-73
2021/06/05 01:56:52;;;;;;;3.15;2.95;;;18.70;99.90;;;;;;5010463;28;20297;-74
2021/06/05 01:59:20;;;;;;;3.05;2.85;;;18.70;99.90;;;;;;5027484;28;20195;-76
2021/06/05 02:01:47;;;;;;;3.42;3.13;;;18.70;99.90;;;;;;5036451;28;20710;-74
2021/06/05 02:04:14;;;;;;;3.35;3.00;;;18.70;99.90;;;;;;5017100;28;20196;-75
2021/06/05 02:06:44;;;;;;;3.30;3.10;;;18.70;99.90;;;;;;5015743;28;20253;-73
2021/06/05 02:09:12;;;;;;;4.70;3.13;;;18.70;99.90;;;;;;5014987;28;20204;-75
2021/06/05 02:11:43;;;;;;;3.30;3.05;;;18.60;99.90;;;;;;5012215;28;20286;-74
2021/06/05 02:14:15;;;;;;;3.42;3.13;;;18.60;99.90;;;;;;5012736;28;20554;-74
2021/06/05 02:16:47;;;;;;;4.03;3.72;;;18.60;99.90;;;;;;5013376;28;20231;-74
2021/06/05 02:19:18;;;;;;;3.45;3.20;;;18.60;99.90;;;;;;5009851;28;20201;-74
2021/06/05 02:21:46;;;;;;;3.50;3.20;;;18.50;99.90;;;;;;5011956;28;20254;-73
2021/06/05 02:24:17;;;;;;;3.30;3.10;;;18.50;99.90;;;;;;5014190;28;20658;-74
2021/06/05 02:26:45;;;;;;;3.53;3.33;;;18.50;99.90;;;;;;5012031;28;20224;-74
2021/06/05 02:29:15;;;;;;;3.90;3.60;;;18.50;99.90;;;;;;5008991;28;20698;-74
2021/06/05 02:31:43;;;;;;;3.30;3.10;;;18.50;99.90;;;;;;5025757;28;20230;-73
2021/06/05 02:34:14;;;;;;;3.80;3.50;;;18.50;99.90;;;;;;5023571;28;20384;-75
2021/06/05 02:36:43;;;;;;;3.15;2.95;;;18.50;99.90;;;;;;5026888;28;20593;-73
2021/06/05 02:39:11;;;;;;;3.75;3.45;;;18.50;99.90;;;;;;5040491;28;20196;-75
2021/06/05 02:41:42;;;;;;;3.35;3.15;;;18.50;99.90;;;;;;5035159;28;20235;-74
2021/06/05 02:44:09;;;;;;;3.58;3.28;;;18.60;99.90;;;;;;5035889;28;20199;-72
2021/06/05 02:46:38;;;;;;;4.50;3.20;;;18.50;99.90;;;;;;5031683;28;20215;-74
2021/06/05 02:49:09;;;;;;;3.30;3.05;;;18.50;99.90;;;;;;5035078;28;20199;-73
2021/06/05 02:51:48;;;;;;;3.25;3.00;;;18.50;99.90;;;;;;5038675;28;20199;-77
2021/06/05 02:54:15;;;;;;;3.35;3.05;;;18.50;99.90;;;;;;5039111;28;20195;-73
2021/06/05 02:56:42;;;;;;;4.00;3.70;;;18.50;99.90;;;;;;5032579;28;20232;-74
2021/06/05 02:59:09;;;;;;;3.50;3.30;;;18.50;99.90;;;;;;5030802;28;20203;-74
2021/06/05 03:01:35;;;;;;;3.42;3.20;;;18.50;99.90;;;;;;5030191;28;20207;-75
2021/06/05 03:04:02;;;;;;;4.07;3.78;;;18.40;99.90;;;;;;5035737;28;20200;-74
2021/06/05 03:06:32;;;;;;;3.67;3.38;;;18.40;99.90;;;;;;5031139;28;20581;-73
2021/06/05 03:08:58;;;;;;;3.70;3.45;;;18.40;99.90;;;;;;5029734;28;20564;-75
2021/06/05 03:11:27;;;;;;;3.40;3.20;;;18.40;99.90;;;;;;5030684;28;20233;-74
2021/06/05 03:13:54;;;;;;;3.47;3.17;;;18.40;99.90;;;;;;5029121;28;20203;-74
2021/06/05 03:16:21;;;;;;;3.75;3.45;;;18.30;99.90;;;;;;5030039;28;20211;-73
2021/06/05 03:18:48;;;;;;;3.80;3.50;;;18.30;99.90;;;;;;5031603;28;20215;-73
2021/06/05 03:21:18;;;;;;;3.90;3.60;;;18.20;99.90;;;;;;5033910;28;20230;-74
2021/06/05 03:23:48;;;;;;;5.07;3.45;;;18.20;99.90;;;;;;5035835;28;20661;-75
2021/06/05 03:26:15;;;;;;;3.78;3.47;;;18.20;99.90;;;;;;5033721;28;20223;-73
2021/06/05 03:28:42;;;;;;;3.60;3.38;;;18.20;99.90;;;;;;5028514;28;20215;-73
2021/06/05 03:31:09;;;;;;;3.42;3.22;;;18.20;99.90;;;;;;5028243;28;20199;-73
2021/06/05 03:33:36;;;;;;;4.57;4.18;;;18.10;99.90;;;;;;5031682;28;20219;-75
2021/06/05 03:36:03;;;;;;;3.58;3.38;;;18.20;99.90;;;;;;5026065;28;20220;-74
2021/06/05 03:38:30;;;;;;;3.58;3.30;;;18.10;99.90;;;;;;5030253;28;20673;-74
2021/06/05 03:40:59;;;;;;;3.70;3.40;;;18.10;99.90;;;;;;5029686;28;20196;-73
2021/06/05 03:43:26;;;;;;;3.03;2.83;;;18.10;99.90;;;;;;5037886;28;20219;-76
2021/06/05 03:45:53;;;;;;;3.67;3.38;;;18.10;99.90;;;;;;5039272;28;20207;-75
2021/06/05 03:48:20;;;;;;;3.58;3.35;;;18.10;99.90;;;;;;5033209;28;20222;-74
2021/06/05 03:50:50;;;;;;;3.75;3.55;;;18.10;99.90;;;;;;5020806;28;20204;-75
2021/06/05 03:53:19;;;;;;;4.03;3.72;;;18.10;99.90;;;;;;5025749;28;20281;-74
2021/06/05 03:55:45;;;;;;;3.70;3.50;;;18.00;99.90;;;;;;5031996;28;20215;-74
2021/06/05 03:58:14;;;;;;;3.72;3.45;;;18.10;99.90;;;;;;5033392;28;20210;-73
2021/06/05 04:00:43;;;;;;;4.15;3.85;;;18.10;99.90;;;;;;5024200;28;20206;-74
2021/06/05 04:03:13;;;;;;;3.65;3.35;;;18.10;99.90;;;;;;5025304;28;20222;-74
2021/06/05 04:05:40;;;;;;;3.42;3.13;;;18.20;99.90;;;;;;5025829;28;20246;-73
2021/06/05 04:08:08;;;;;;;3.30;3.10;;;18.30;99.90;;;;;;5028045;28;20227;-74
2021/06/05 04:10:35;;;;;;;8.85;3.65;;;18.40;99.90;;;;;;5037533;28;20252;-74
2021/06/05 04:13:02;;;;;;;3.85;3.55;;;18.50;99.90;;;;;;5039064;28;20220;-74
2021/06/05 04:15:32;;;;;;;3.30;3.10;;;18.60;99.90;;;;;;5026815;28;20298;-74
2021/06/05 04:18:04;;;;;;;3.80;3.03;;;18.70;99.90;;;;;;5027127;28;20222;-75
2021/06/05 04:20:31;;;;;;;3.38;3.10;;;18.80;99.90;;;;;;5032539;28;20198;-74
2021/06/05 04:22:58;;;;;;;3.35;3.15;;;18.80;99.90;;;;;;5025294;28;20215;-74
2021/06/05 04:25:25;;;;;;;3.28;3.08;;;18.90;99.90;;;;;;5026311;28;20604;-75
2021/06/05 04:27:52;;;;;;;3.40;3.20;;;19.00;99.90;;;;;;5024069;28;20709;-75
2021/06/05 04:30:20;;;;;;;4.30;3.60;;;19.00;99.90;;;;;;5020801;28;20266;-74
2021/06/05 04:32:48;;;;;;;3.80;3.50;;;19.00;99.90;;;;;;5025136;28;20224;-74
2021/06/05 04:35:16;;;;;;;3.40;3.20;;;19.00;99.90;;;;;;5034264;28;20195;-75
2021/06/05 04:37:42;;;;;;;3.45;3.20;;;19.00;99.90;;;;;;5031238;28;20273;-75
2021/06/05 04:40:11;;;;;;;3.75;3.45;;;19.00;99.90;;;;;;5024500;28;20195;-73
2021/06/05 04:42:38;;;;;;;4.88;3.90;;;18.90;99.90;;;;;;5028700;28;20220;-74
2021/06/05 04:45:06;;;;;;;4.35;3.95;;;18.80;99.90;;;;;;5025319;28;20219;-75
2021/06/05 04:47:33;;;;;;;3.72;3.40;;;18.70;99.90;;;;;;5032870;28;20653;-74
2021/06/05 04:50:01;;;;;;;4.28;3.60;;;18.60;99.90;;;;;;5025756;28;20195;-73
2021/06/05 04:52:28;;;;;;;3.83;3.53;;;18.60;99.90;;;;;;5031119;28;20724;-74
2021/06/05 04:54:54;;;;;;;3.28;3.08;;;18.60;99.90;;;;;;5028048;28;20215;-74
2021/06/05 04:57:21;;;;;;;4.43;4.03;;;18.50;99.90;;;;;;5032853;28;20243;-75
2021/06/05 04:59:48;;;;;;;3.40;3.17;;;18.40;99.90;;;;;;5024879;28;20202;-74
2021/06/05 05:02:14;;;;;;;4.25;3.95;;;18.60;99.90;;;;;;5024993;28;20216;-74
2021/06/05 05:04:43;;;;;;;4.00;3.70;;;18.80;99.90;;;;;;5026182;28;20198;-74
2021/06/05 05:07:12;;;;;;;4.00;3.70;;;18.80;99.90;;;;;;5022694;28;22178;-74
2021/06/05 05:09:38;;;;;;;4.07;3.72;;;18.80;99.90;;;;;;5028148;28;20211;-74
2021/06/05 05:12:06;;;;;;;4.28;3.85;;;18.90;99.90;;;;;;5027770;28;20315;-74
2021/06/05 05:14:34;;;;;;;3.70;3.40;;;18.90;99.90;;;;;;5034722;28;20265;-73
2021/06/05 05:17:01;;;;;;;4.15;3.85;;;18.90;99.90;;;;;;5032901;28;20222;-74
2021/06/05 05:19:27;;;;;;;4.32;3.97;;;19.00;99.90;;;;;;5033708;28;20684;-74
2021/06/05 05:21:54;;;;;;;4.57;4.18;;;19.00;99.90;;;;;;5028723;28;20207;-73
2021/06/05 05:24:23;;;;;;;4.15;3.85;;;19.00;99.90;;;;;;5023331;28;20314;-75
2021/06/05 05:26:50;;;;;;;3.88;3.67;;;19.20;99.90;;;;;;5039075;28;20203;-76
2021/06/05 05:29:16;;;;;;;4.38;3.97;;;19.40;99.90;;;;;;5037746;28;20206;-74
2021/06/05 05:31:43;;;;;;;3.95;3.65;;;19.70;99.90;;;;;;5030406;28;20188;-74
2021/06/05 05:34:10;;;;;;;4.05;3.70;;;19.80;99.90;;;;;;5029983;28;20232;-74
2021/06/05 05:36:39;;;;;;;4.20;3.85;;;20.00;99.90;;;;;;5030971;28;20219;-74
2021/06/05 05:39:08;;;;;;;3.95;3.65;;;20.10;99.90;;;;;;5036659;28;20219;-74
2021/06/05 05:41:37;;;;;;;4.88;4.32;;;20.10;99.90;;;;;;5037697;28;20195;-74
2021/06/05 05:44:05;;;;;;;4.47;4.15;;;20.10;99.90;;;;;;5053151;28;20219;-74
2021/06/05 05:46:31;;;;;;;4.00;3.70;;;20.20;99.90;;;;;;5037551;28;20226;-71
2021/06/05 05:48:58;;;;;;;4.45;4.15;;;20.30;99.90;;;;;;5032391;28;20242;-73
2021/06/05 05:51:25;;;;;;;4.72;4.30;;;20.40;99.90;;;;;;5032364;28;20221;-74
2021/06/05 05:53:53;;;;;;;4.53;4.13;;;20.50;99.90;;;;;;5025066;28;20462;-74
2021/06/05 05:56:24;;;;;;;4.50;4.20;;;20.60;99.90;;;;;;5027581;28;20220;-74
2021/06/05 05:58:53;;;;;;;4.82;4.45;;;20.70;99.90;;;;;;5030062;28;20571;-74
2021/06/05 06:01:22;;;;;;;5.30;4.60;;;20.70;99.90;;;;;;5035391;28;20305;-74
2021/06/05 06:03:49;;;;;;;4.07;3.78;;;20.60;99.90;;;;;;5030200;28;20245;-74
2021/06/05 06:06:15;;;;;;;4.30;3.90;;;20.70;99.90;;;;;;5032712;28;20211;-74
2021/06/05 06:08:43;;;;;;;4.25;3.85;;;20.80;99.90;;;;;;5030122;28;20222;-75
2021/06/05 06:11:11;;;;;;;3.72;3.50;;;20.60;99.90;;;;;;5027736;28;20207;-74
2021/06/05 06:13:38;;;;;;;4.72;4.32;;;20.40;99.90;;;;;;5026238;28;20220;-74
2021/06/05 06:16:08;;;;;;;5.93;4.30;;;20.10;99.90;;;;;;5032433;28;20243;-75
2021/06/05 06:18:34;;;;;;;5.57;4.18;;;19.90;99.90;;;;;;5052707;28;20219;-74
2021/06/05 06:21:02;;;;;;;4.72;4.32;;;20.10;99.90;;;;;;5040454;28;20204;-74
2021/06/05 06:23:31;;;;;;;5.35;4.30;;;20.30;99.90;;;;;;5030960;28;20768;-70
2021/06/05 06:26:01;;;;;;;4.53;4.13;;;20.50;99.90;;;;;;5036117;28;20763;-74
2021/06/05 06:28:30;;;;;;;5.00;4.60;;;20.70;99.90;;;;;;5032508;28;20604;-74
2021/06/05 06:30:59;;;;;;;4.30;3.97;;;20.90;99.90;;;;;;5035895;28;20223;-75
2021/06/05 06:33:27;;;;;;;4.72;4.32;;;21.10;99.90;;;;;;5033680;28;20698;-75
2021/06/05 06:35:55;;;;;;;5.65;5.07;;;21.30;99.90;;;;;;5034729;28;20220;-75
2021/06/05 06:38:25;;;;;;;5.20;4.70;;;21.30;99.90;;;;;;5035117;28;20219;-75
2021/06/05 06:40:52;;;;;;;5.82;4.45;;;21.20;99.90;;;;;;5037161;28;20202;-75
2021/06/05 06:43:22;;;;;;;4.90;4.45;;;21.20;99.90;;;;;;5026765;28;20215;-73
2021/06/05 06:45:49;;;;;;;5.03;4.63;;;21.30;99.90;;;;;;5029966;28;20219;-75
2021/06/05 06:48:17;;;;;;;4.72;4.32;;;21.50;99.90;;;;;;5027187;28;20223;-75
2021/06/05 06:50:45;;;;;;;7.20;5.10;;;21.60;99.90;;;;;;5028690;28;20188;-75
2021/06/05 06:53:11;;;;;;;5.18;4.75;;;21.70;99.90;;;;;;5026465;28;20278;-75
2021/06/05 06:55:38;;;;;;;5.68;5.22;;;21.80;99.90;;;;;;5006769;28;20747;-75
2021/06/05 06:58:05;;;;;;;5.05;4.65;;;21.80;99.90;;;;;;5006838;28;20772;-74
2021/06/05 07:00:35;;;;;;;5.53;5.03;;;21.80;99.90;;;;;;5011375;28;20212;-74
2021/06/05 07:03:01;;;;;;;4.82;4.43;;;21.90;99.90;;;;;;5006423;28;20219;-74
2021/06/05 07:05:28;;;;;;;5.30;4.90;;;21.80;99.90;;;;;;4999275;28;20714;-75
2021/06/05 07:08:08;;;;;;;5.15;4.75;;;21.90;99.90;;;;;;5003488;28;20212;-74
2021/06/05 07:10:35;;;;;;;6.10;4.88;;;21.90;99.90;;;;;;5019786;28;20200;-75
2021/06/05 07:13:02;;;;;;;8.48;4.88;;;21.90;99.90;;;;;;5008534;28;20808;-76
2021/06/05 07:15:29;;;;;;;4.70;4.30;;;22.00;99.90;;;;;;5027070;28;20216;-75
2021/06/05 07:17:55;;;;;;;5.30;4.57;;;22.10;99.90;;;;;;5014500;28;20227;-75
2021/06/05 07:20:22;;;;;;;5.18;4.68;;;22.20;99.90;;;;;;5026697;28;20254;-75
2021/06/05 07:22:48;;;;;;;5.22;4.75;;;22.20;99.90;;;;;;5024841;28;20223;-76
2021/06/05 07:25:16;;;;;;;4.78;4.38;;;22.30;99.90;;;;;;5005756;28;20228;-76
2021/06/05 07:27:45;;;;;;;4.80;4.40;;;22.50;99.90;;;;;;5010150;28;20220;-75
2021/06/05 07:30:13;;;;;;;4.65;4.25;;;22.60;99.90;;;;;;5003731;28;20359;-75
2021/06/05 07:32:40;;;;;;;4.25;3.90;;;22.80;99.90;;;;;;5004542;28;20650;-74
2021/06/05 07:35:08;;;;;;;5.18;4.78;;;22.90;99.90;;;;;;5000385;28;20227;-74
2021/06/05 07:37:35;;;;;;;5.93;4.20;;;23.10;99.90;;;;;;5006191;28;20225;-74
2021/06/05 07:40:06;;;;;;;4.35;4.05;;;23.10;99.90;;;;;;4999692;28;21111;-74
2021/06/05 07:42:35;;;;;;;4.63;4.22;;;23.40;99.90;;;;;;5011291;28;20235;-74
2021/06/05 07:45:04;;;;;;;5.03;4.63;;;23.50;99.90;;;;;;5018638;28;20216;-73
2021/06/05 07:47:31;;;;;;;5.05;4.65;;;23.60;99.90;;;;;;5018183;28;20733;-73
2021/06/05 07:49:58;;;;;;;5.47;4.38;;;23.60;99.90;;;;;;5021094;28;20207;-73
2021/06/05 07:52:24;;;;;;;5.13;3.80;;;23.50;99.90;;;;;;5017281;28;20192;-73
2021/06/05 07:54:53;;;;;;;4.72;4.32;;;23.60;99.90;;;;;;5030485;28;20243;-73
2021/06/05 07:57:20;;;;;;;4.22;3.92;;;23.70;99.90;;;;;;5033350;28;20311;-74
2021/06/05 07:59:48;;;;;;;4.10;3.80;;;23.80;99.90;;;;;;5039203;28;20742;-73
2021/06/05 08:02:16;;;;;;;4.70;4.20;;;23.90;99.90;;;;;;5054286;28;20662;-73
2021/06/05 08:04:42;;;;;;;4.93;4.53;;;24.00;99.90;;;;;;5035386;28;20222;-73
2021/06/05 08:07:09;;;;;;;4.65;4.25;;;24.10;99.90;;;;;;5037629;28;20298;-74
2021/06/05 08:09:36;;;;;;;4.70;4.28;;;24.10;99.90;;;;;;5038648;28;20257;-73
2021/06/05 08:12:03;;;;;;;4.13;3.80;;;24.10;99.90;;;;;;5039806;28;20195;-73
2021/06/05 08:14:30;;;;;;;5.05;4.50;;;24.20;99.90;;;;;;5034111;28;20223;-74
2021/06/05 08:16:58;;;;;;;4.50;4.13;;;24.40;99.90;;;;;;5031483;28;20230;-73
2021/06/05 08:19:25;;;;;;;4.28;3.88;;;24.50;99.90;;;;;;5038428;28;20230;-73
2021/06/05 08:21:52;;;;;;;4.60;4.20;;;24.60;99.90;;;;;;5032759;28;20223;-74
2021/06/05 08:24:20;;;;;;;4.18;3.88;;;24.80;99.90;;;;;;5034429;28;20748;-74
2021/06/05 08:26:47;;;;;;;4.30;3.55;;;25.10;99.90;;;;;;5029758;28;20631;-74
2021/06/05 08:29:14;;;;;;;4.25;3.85;;;25.50;99.90;;;;;;5019277;28;20220;-74
2021/06/05 08:31:40;;;;;;;4.40;4.00;;;25.50;99.90;;;;;;5028357;28;20602;-74
2021/06/05 08:34:09;;;;;;;4.40;3.97;;;25.50;99.90;;;;;;5024216;28;20242;-74
2021/06/05 08:36:36;;;;;;;4.68;4.28;;;25.50;99.90;;;;;;5028908;28;20224;-74
2021/06/05 08:39:05;;;;;;;4.60;4.20;;;25.30;99.90;;;;;;5025813;28;20272;-75
2021/06/05 08:41:36;;;;;;;4.40;4.03;;;25.40;99.90;;;;;;5024956;28;20199;-74
2021/06/05 08:44:09;;;;;;;5.15;4.65;;;25.50;99.90;;;;;;5029630;28;20230;-75
2021/06/05 08:46:39;;;;;;;5.70;4.47;;;25.60;99.90;;;;;;5050665;28;20412;-75
2021/06/05 08:49:11;;;;;;;4.07;3.78;;;25.70;99.90;;;;;;5032456;28;20298;-73
2021/06/05 08:51:52;;;;;;;4.75;4.30;;;26.00;99.90;;;;;;5030563;28;20196;-74
2021/06/05 08:54:33;;;;;;;4.55;4.20;;;26.40;99.90;;;;;;5039317;28;20219;-74
2021/06/05 08:57:05;;;;;;;6.28;4.10;;;26.20;99.90;;;;;;5026717;28;20239;-74
2021/06/05 08:59:33;;;;;;;4.28;3.97;;;26.20;99.90;;;;;;5024684;28;20732;-75
2021/06/05 09:02:00;;;;;;;3.45;3.15;;;26.30;99.90;;;;;;5034636;28;20191;-74
2021/06/05 09:04:29;;;;;;;5.35;4.85;;;26.60;99.90;;;;;;5030669;28;20223;-74
2021/06/05 09:06:59;;;;;;;5.03;4.63;;;26.80;99.90;;;;;;5030504;28;20212;-74
2021/06/05 09:09:32;;;;;;;5.22;4.50;;;26.60;99.90;;;;;;5033702;28;20231;-74
2021/06/05 09:11:59;;;;;;;5.82;4.35;;;26.40;99.90;;;;;;5035590;28;20721;-74
2021/06/05 09:14:26;;;;;;;4.65;3.88;;;26.30;99.90;;;;;;5029578;28;20224;-76
2021/06/05 09:16:54;;;;;;;4.05;3.65;;;26.50;99.90;;;;;;5032309;28;20604;-74
2021/06/05 09:19:28;;;;;;;4.50;4.10;;;26.60;99.90;;;;;;5036424;28;20215;-75
2021/06/05 09:22:15;;;;;;;4.53;4.15;;;26.50;99.90;;;;;;5032903;28;20194;-73
2021/06/05 09:24:43;;;;;;;4.30;3.90;;;26.60;99.90;;;;;;5029397;28;20218;-75
2021/06/05 09:27:13;;;;;;;4.43;4.07;;;26.70;99.90;;;;;;5032403;28;20222;-74
2021/06/05 09:29:49;;;;;;;3.25;3.05;;;27.00;99.90;;;;;;5027506;28;20234;-74
2021/06/05 09:32:17;;;;;;;3.95;3.60;;;27.20;99.90;;;;;;5044874;28;20201;-74
2021/06/05 09:34:46;;;;;;;4.50;4.10;;;27.30;99.90;;;;;;5036935;28;20870;-75
2021/06/05 09:37:34;;;;;;;3.70;3.40;;;27.10;99.90;;;;;;5033950;28;20231;-74
2021/06/05 09:40:13;;;;;;;4.00;3.70;;;27.20;99.90;;;;;;5026936;28;20211;-75
2021/06/05 09:42:42;;;;;;;3.67;3.38;;;27.30;99.90;;;;;;5030765;28;20192;-74
2021/06/05 09:45:25;;;;;;;4.72;4.00;;;27.20;99.90;;;;;;5045223;28;20203;-74
2021/06/05 09:47:52;;;;;;;6.15;4.25;;;27.30;99.90;;;;;;5032221;28;20199;-74
2021/06/05 09:50:35;;;;;;;5.03;4.18;;;27.20;99.90;;;;;;5035556;28;20228;-74
2021/06/05 09:53:11;;;;;;;4.20;3.88;;;27.10;99.90;;;;;;5039352;28;20222;-74
2021/06/05 09:55:38;;;;;;;3.75;3.45;;;27.30;99.90;;;;;;5037082;28;20701;-74
2021/06/05 09:58:10;;;;;;;4.45;4.05;;;27.30;99.90;;;;;;5042888;28;20704;-74
2021/06/05 10:00:39;;;;;;;3.40;3.15;;;27.30;99.90;;;;;;5032964;28;20290;-75
2021/06/05 10:03:26;;;;;;;5.07;3.40;;;27.40;99.90;;;;;;5035586;28;20216;-75
2021/06/05 10:05:53;;;;;;;4.15;3.83;;;27.70;99.90;;;;;;5034992;28;20220;-74
2021/06/05 10:08:28;;;;;;;4.07;3.75;;;27.80;99.90;;;;;;5035140;28;20227;-75
2021/06/05 10:11:02;;;;;;;4.20;3.13;;;27.90;99.90;;;;;;5035142;28;20244;-74
2021/06/05 10:13:33;;;;;;;4.47;3.92;;;28.20;99.90;;;;;;5036924;28;20223;-75
2021/06/05 10:16:05;;;;;;;4.00;3.70;;;28.40;99.90;;;;;;5035089;28;20227;-75
2021/06/05 10:18:37;;;;;;;4.00;3.70;;;28.20;99.90;;;;;;5052848;28;20215;-75
2021/06/05 10:21:09;;;;;;;4.07;3.78;;;28.10;99.90;;;;;;5036776;28;20208;-74
2021/06/05 10:23:41;;;;;;;3.92;3.63;;;28.20;99.90;;;;;;5035307;28;20215;-75
2021/06/05 10:26:26;;;;;;;3.95;3.65;;;28.40;99.90;;;;;;5034347;28;20235;-76
2021/06/05 10:28:57;;;;;;;4.10;3.70;;;28.40;99.90;;;;;;5036156;28;20219;-74
2021/06/05 10:31:25;;;;;;;4.68;4.28;;;28.50;99.90;;;;;;5030943;28;20196;-74
2021/06/05 10:33:56;;;;;;;4.78;3.80;;;28.50;99.90;;;;;;5039765;28;20223;-74
2021/06/05 10:36:25;;;;;;;4.13;3.83;;;28.40;99.90;;;;;;5040164;28;20196;-75
2021/06/05 10:38:58;;;;;;;4.38;3.92;;;28.50;99.90;;;;;;5043565;28;20233;-75
2021/06/05 10:41:32;;;;;;;4.25;3.90;;;28.60;99.90;;;;;;5033875;28;20955;-74
2021/06/05 10:44:00;;;;;;;4.55;3.38;;;28.80;99.90;;;;;;5035329;28;20229;-74
2021/06/05 10:46:40;;;;;;;3.90;3.60;;;29.00;99.90;;;;;;5038564;28;20786;-74
2021/06/05 10:49:15;;;;;;;3.83;3.30;;;29.10;99.90;;;;;;5041166;28;20310;-75
2021/06/05 10:51:45;;;;;;;4.05;3.63;;;29.00;99.90;;;;;;5037496;28;20660;-74
2021/06/05 10:54:20;;;;;;;4.80;4.00;;;28.90;99.90;;;;;;5034691;28;20226;-74
2021/06/05 10:57:06;;;;;;;3.80;3.50;;;28.90;99.90;;;;;;5027940;28;20223;-74
2021/06/05 10:59:44;;;;;;;4.65;3.47;;;28.80;99.90;;;;;;5027760;28;20269;-75
2021/06/05 11:02:33;;;;;;;3.47;3.17;;;29.10;99.90;;;;;;5031685;28;20207;-79
2021/06/05 11:04:59;;;;;;;3.85;3.55;;;29.40;99.90;;;;;;5042741;28;20678;-77
2021/06/05 11:07:32;;;;;;;3.30;3.10;;;29.40;99.90;;;;;;5036163;28;20203;-75
2021/06/05 11:10:05;;;;;;;4.15;3.50;;;29.30;99.90;;;;;;5032391;28;20651;-74
2021/06/05 11:12:51;;;;;;;3.75;3.30;;;29.10;99.90;;;;;;5028225;28;20203;-75
2021/06/05 11:15:54;;;;;;;2.90;2.70;;;29.20;99.90;;;;;;5035401;28;20218;-75
2021/06/05 11:18:33;;;;;;;6.07;3.40;;;29.30;99.90;;;;;;4947877;28;20376;-74
2021/06/05 11:21:15;;;;;;;3.00;2.70;;;29.40;99.90;;;;;;4956443;28;20194;-77
2021/06/05 11:24:16;;;;;;;3.72;3.08;;;29.60;99.90;;;;;;4999331;28;20219;-78
2021/06/05 11:26:46;;;;;;;3.45;3.15;;;29.60;99.90;;;;;;5006331;28;20223;-78
2021/06/05 11:29:55;;;;;;;3.25;2.75;;;29.60;99.90;;;;;;5021732;28;20228;-77
2021/06/05 11:32:35;;;;;;;3.95;2.63;;;29.50;99.90;;;;;;4982191;28;20205;-77
2021/06/05 11:35:06;;;;;;;3.90;3.08;;;29.40;99.90;;;;;;5005795;28;21301;-77
2021/06/05 11:37:51;;;;;;;3.47;2.67;;;29.20;99.90;;;;;;5013857;28;20227;-77
2021/06/05 11:41:01;;;;;;;5.80;3.33;;;28.90;99.90;;;;;;5009257;28;20772;-76
2021/06/05 11:44:13;;;;;;;4.10;3.33;;;28.80;99.90;;;;;;5008730;28;20220;-77
2021/06/05 11:46:50;;;;;;;5.35;3.40;;;28.90;99.90;;;;;;5011543;28;20216;-77
2021/06/05 11:49:44;;;;;;;2.80;2.60;;;29.20;99.90;;;;;;5022640;28;20220;-78
2021/06/05 11:52:46;;;;;;;3.55;3.10;;;29.60;99.90;;;;;;5016730;28;20206;-77
2021/06/05 11:55:34;;;;;;;4.60;2.88;;;29.70;99.90;;;;;;5001354;28;20228;-77
2021/06/05 11:58:06;;;;;;;3.70;3.40;;;29.90;99.90;;;;;;5013106;28;20219;-77
2021/06/05 12:00:51;;;;;;;3.10;2.90;;;29.80;99.90;;;;;;5032428;28;20797;-76
2021/06/05 12:03:25;;;;;;;3.50;3.20;;;29.80;99.90;;;;;;5030967;28;20252;-77
2021/06/05 12:05:51;;;;;;;4.70;3.22;;;29.70;99.90;;;;;;5026931;28;21037;-77
2021/06/05 12:08:24;;;;;;;4.95;3.28;;;29.70;99.90;;;;;;5028284;28;20685;-76
2021/06/05 12:10:52;;;;;;;4.75;3.35;;;29.60;99.90;;;;;;5025996;28;20207;-77
2021/06/05 12:13:26;;;;;;;5.18;3.72;;;29.40;99.90;;;;;;5029873;28;20216;-77
2021/06/05 12:15:57;;;;;;;10.73;3.38;;;29.20;99.90;;;;;;5022905;28;20211;-79
2021/06/05 12:18:26;;;;;;;3.15;2.72;;;29.00;99.90;;;;;;5023219;28;20223;-76
2021/06/05 12:20:58;;;;;;;2.97;2.58;;;29.10;99.90;;;;;;5019973;28;20196;-77
2021/06/05 12:23:29;;;;;;;4.18;3.35;;;29.20;99.90;;;;;;5005389;28;20224;-77
2021/06/05 12:26:02;;;;;;;4.35;3.75;;;29.30;99.90;;;;;;5005435;28;20289;-77
2021/06/05 12:28:31;;;;;;;3.58;3.25;;;29.20;99.90;;;;;;5005687;28;20722;-77
2021/06/05 12:31:12;;;;;;;5.47;3.30;;;29.20;99.90;;;;;;5010648;28;20196;-75
2021/06/05 12:33:39;;;;;;;5.63;3.78;;;28.70;99.90;;;;;;5006964;28;20605;-74
2021/06/05 12:36:22;;;;;;;4.35;3.90;;;28.00;99.90;;;;;;5019267;28;20330;-77
2021/06/05 12:38:51;;;;;;;6.55;3.90;;;27.30;99.90;;;;;;5016788;28;20299;-76
2021/06/05 12:41:22;;;;;;;5.03;4.53;;;26.80;99.90;;;;;;5033941;28;20282;-76
2021/06/05 12:43:49;;;;;;;5.00;4.50;;;26.60;99.90;;;;;;5028093;28;20219;-77
2021/06/05 12:46:23;;;;;;;12.25;4.43;;;26.30;99.90;;;;;;5030678;28;20689;-76
2021/06/05 12:48:51;;;;;;;5.65;4.40;;;26.10;99.90;;;;;;5029566;28;20285;-77
2021/06/05 12:51:24;;;;;;;6.22;4.32;;;25.90;99.90;;;;;;5032970;28;20199;-76
2021/06/05 12:53:57;;;;;;;6.47;4.57;;;25.80;99.90;;;;;;5027384;28;20646;-77
2021/06/05 12:56:37;;;;;;;6.88;4.72;;;25.70;99.90;;;;;;5015262;28;20220;-75
2021/06/05 12:59:06;;;;;;;4.53;4.05;;;25.60;99.90;;;;;;5021682;28;20234;-76
2021/06/05 13:01:38;;;;;;;7.63;4.38;;;25.60;99.90;;;;;;5026837;28;20727;-75
2021/06/05 13:04:08;;;;;;;6.93;3.97;;;25.50;99.90;;;;;;5025093;28;20724;-75
2021/06/05 13:06:54;;;;;;;5.88;3.85;;;25.40;99.90;;;;;;5027132;28;20310;-75